createdAt,value
2022-11-20T00:00:27.621Z,98041.53
2022-11-20T00:02:53.717Z,98041.41
2022-11-20T00:05:20.129Z,98031.63
2022-11-20T00:07:46.230Z,98034.50
2022-11-20T00:10:12.315Z,98028.13
2022-11-20T00:12:38.415Z,98031.53
2022-11-20T00:15:04.515Z,98032.28
2022-11-20T00:17:30.609Z,98033.59
2022-11-20T00:19:56.717Z,98028.19
2022-11-20T00:22:22.800Z,98022.56
2022-11-20T00:24:48.884Z,98035.53
2022-11-20T00:27:14.997Z,98036.66
2022-11-20T00:29:41.083Z,98036.88
2022-11-20T00:32:07.163Z,98027.97
2022-11-20T00:34:33.263Z,98030.19
2022-11-20T00:36:59.382Z,98034.72
2022-11-20T00:39:25.476Z,98029.97
2022-11-20T00:41:51.601Z,98026.66
2022-11-20T00:44:17.728Z,98033.22
2022-11-20T00:46:43.827Z,98029.94
2022-11-20T00:49:09.931Z,98040.03
2022-11-20T00:51:36.015Z,98032.25
2022-11-20T00:54:02.113Z,98036.88
2022-11-20T00:56:28.228Z,98045.78
2022-11-20T00:58:54.321Z,98041.28
2022-11-20T01:01:20.508Z,98035.25
2022-11-20T01:03:46.938Z,98039.78
2022-11-20T01:06:13.029Z,98037.53
2022-11-20T01:08:39.120Z,98031.25
2022-11-20T01:11:05.221Z,98026.72
2022-11-20T01:13:31.313Z,98028.41
2022-11-20T01:15:57.409Z,98026.03
2022-11-20T01:18:23.528Z,98034.31
2022-11-20T01:20:49.630Z,98022.94
2022-11-20T01:23:15.716Z,98026.72
2022-11-20T01:25:41.888Z,98022.31
2022-11-20T01:28:07.976Z,98023.53
2022-11-20T01:30:34.064Z,98022.78
2022-11-20T01:33:00.178Z,98017.31
2022-11-20T01:35:26.263Z,98017.56
2022-11-20T01:37:52.361Z,98017.66
2022-11-20T01:40:18.487Z,98018.84
2022-11-20T01:42:44.596Z,98017.81
2022-11-20T01:45:10.678Z,98015.41
2022-11-20T01:47:36.780Z,98017.66
2022-11-20T01:50:02.876Z,98015.13
2022-11-20T01:52:28.962Z,98020.13
2022-11-20T01:54:55.085Z,98015.84
2022-11-20T01:57:21.181Z,98004.25
2022-11-20T01:59:47.264Z,98007.91
2022-11-20T02:02:13.370Z,98000.06
2022-11-20T02:04:39.456Z,97994.75
2022-11-20T02:07:05.607Z,97995.59
2022-11-20T02:09:32.257Z,97995.88
2022-11-20T02:11:58.357Z,97992.56
2022-11-20T02:14:24.448Z,97982.81
2022-11-20T02:16:50.555Z,97989.81
2022-11-20T02:19:16.635Z,97987.31
2022-11-20T02:21:42.729Z,97970.47
2022-11-20T02:24:08.829Z,97982.91
2022-11-20T02:26:34.924Z,97973.63
2022-11-20T02:29:01.029Z,97974.66
2022-11-20T02:31:27.173Z,97975.94
2022-11-20T02:33:53.266Z,97982.94
2022-11-20T02:36:19.364Z,97982.81
2022-11-20T02:38:45.459Z,97985.28
2022-11-20T02:41:11.550Z,97986.97
2022-11-20T02:43:37.648Z,97993.56
2022-11-20T02:46:03.765Z,97982.19
2022-11-20T02:48:33.653Z,97978.69
2022-11-20T02:51:00.088Z,97979.56
2022-11-20T02:53:26.205Z,97968.47
2022-11-20T02:55:52.305Z,97973.69
2022-11-20T02:58:18.385Z,97970.97
2022-11-20T03:00:44.491Z,97968.94
2022-11-20T03:03:10.581Z,97967.97
2022-11-20T03:05:36.669Z,97977.66
2022-11-20T03:08:03.255Z,97977.06
2022-11-20T03:10:29.363Z,97963.50
2022-11-20T03:12:55.457Z,97954.59
2022-11-20T03:15:21.607Z,97952.41
2022-11-20T03:17:47.718Z,97959.28
2022-11-20T03:20:13.806Z,97957.66
2022-11-20T03:22:39.918Z,97955.69
2022-11-20T03:25:06.000Z,97949.03
2022-11-20T03:27:32.093Z,97947.84
2022-11-20T03:29:58.212Z,97957.91
2022-11-20T03:32:24.295Z,97956.63
2022-11-20T03:34:50.423Z,97940.63
2022-11-20T03:37:16.637Z,97948.91
2022-11-20T03:39:42.764Z,97945.50
2022-11-20T03:42:08.865Z,97936.31
2022-11-20T03:44:34.977Z,97931.50
2022-11-20T03:47:01.066Z,97940.09
2022-11-20T03:49:27.160Z,97935.19
2022-11-20T03:51:53.281Z,97933.78
2022-11-20T03:54:19.364Z,97930.22
2022-11-20T03:56:45.461Z,97933.28
2022-11-20T03:59:11.569Z,97927.53
2022-11-20T04:01:37.691Z,97931.53
2022-11-20T04:04:03.843Z,97924.53
2022-11-20T04:06:29.953Z,97928.34
2022-11-20T04:08:56.048Z,97927.78
2022-11-20T04:11:22.135Z,97930.41
2022-11-20T04:13:48.533Z,97927.53
2022-11-20T04:16:14.619Z,97926.88
2022-11-20T04:18:40.708Z,97923.03
2022-11-20T04:21:06.834Z,97924.81
2022-11-20T04:23:32.932Z,97925.50
2022-11-20T04:25:59.028Z,97929.47
2022-11-20T04:28:25.140Z,97919.13
2022-11-20T04:30:52.532Z,97922.13
2022-11-20T04:33:18.620Z,97921.91
2022-11-20T04:35:44.725Z,97917.34
2022-11-20T04:38:10.812Z,97922.56
2022-11-20T04:40:36.895Z,97924.03
2022-11-20T04:43:03.007Z,97927.22
2022-11-20T04:45:29.099Z,97916.34
2022-11-20T04:47:55.193Z,97926.28
2022-11-20T04:50:21.291Z,97927.09
2022-11-20T04:52:47.379Z,97918.63
2022-11-20T04:55:13.478Z,97914.66
2022-11-20T04:57:39.591Z,97924.63
2022-11-20T05:00:05.687Z,97928.44
2022-11-20T05:02:31.889Z,97927.56
2022-11-20T05:04:57.997Z,97930.59
2022-11-20T05:07:24.129Z,97926.75
2022-11-20T05:09:50.277Z,97925.91
2022-11-20T05:12:16.385Z,97928.09
2022-11-20T05:14:42.478Z,97930.44
2022-11-20T05:17:08.571Z,97933.22
2022-11-20T05:19:35.166Z,97939.44
2022-11-20T05:22:01.252Z,97940.25
2022-11-20T05:24:27.348Z,97931.50
2022-11-20T05:26:53.472Z,97937.78
2022-11-20T05:29:19.874Z,97927.75
2022-11-20T05:31:46.225Z,97927.06
2022-11-20T05:34:12.343Z,97927.78
2022-11-20T05:36:38.457Z,97923.69
2022-11-20T05:39:04.543Z,97923.16
2022-11-20T05:41:30.694Z,97922.59
2022-11-20T05:43:56.791Z,97923.13
2022-11-20T05:46:28.305Z,97925.91
2022-11-20T05:48:55.287Z,97919.56
2022-11-20T05:51:21.382Z,97923.69
2022-11-20T05:53:48.798Z,97915.03
2022-11-20T05:56:15.087Z,97915.97
2022-11-20T05:58:41.177Z,97916.16
2022-11-20T06:01:07.267Z,97914.88
2022-11-20T06:03:33.387Z,97915.16
2022-11-20T06:05:59.475Z,97928.53
2022-11-20T06:08:25.576Z,97923.47
2022-11-20T06:10:51.693Z,97921.94
2022-11-20T06:13:17.782Z,97928.00
2022-11-20T06:15:43.863Z,97923.59
2022-11-20T06:18:10.028Z,97927.28
2022-11-20T06:20:41.816Z,97925.41
2022-11-20T06:23:08.243Z,97922.22
2022-11-20T06:25:34.836Z,97923.44
2022-11-20T06:28:00.933Z,97924.00
2022-11-20T06:30:27.024Z,97918.47
2022-11-20T06:32:53.130Z,97922.94
2022-11-20T06:35:19.247Z,97921.47
2022-11-20T06:37:45.336Z,97929.03
2022-11-20T06:40:11.438Z,97932.16
2022-11-20T06:42:37.537Z,97931.63
2022-11-20T06:45:03.634Z,97932.72
2022-11-20T06:47:30.033Z,97936.94
2022-11-20T06:49:56.128Z,97939.41
2022-11-20T06:52:22.224Z,97939.53
2022-11-20T06:54:48.344Z,97942.88
2022-11-20T06:57:14.440Z,97941.03
2022-11-20T06:59:40.519Z,97940.56
2022-11-20T07:02:06.615Z,97941.72
2022-11-20T07:04:32.697Z,97945.66
2022-11-20T07:06:58.832Z,97944.06
2022-11-20T07:09:25.285Z,97948.09
2022-11-20T07:11:51.572Z,97954.44
2022-11-20T07:14:17.652Z,97952.34
2022-11-20T07:16:43.767Z,97953.31
2022-11-20T07:19:09.866Z,97958.31
2022-11-20T07:21:35.951Z,97955.31
2022-11-20T07:24:02.114Z,97955.53
2022-11-20T07:26:28.204Z,97959.16
2022-11-20T07:28:54.291Z,97962.59
2022-11-20T07:31:20.385Z,97962.09
2022-11-20T07:33:46.795Z,97959.84
2022-11-20T07:36:13.062Z,97957.69
2022-11-20T07:38:39.332Z,97954.72
2022-11-20T07:41:05.603Z,97964.06
2022-11-20T07:43:33.160Z,97969.19
2022-11-20T07:46:02.235Z,97965.50
2022-11-20T07:48:28.366Z,97966.00
2022-11-20T07:50:54.461Z,97966.84
2022-11-20T07:53:20.563Z,97972.06
2022-11-20T07:55:46.660Z,97966.16
2022-11-20T07:58:12.753Z,97965.09
2022-11-20T08:00:38.896Z,97967.25
2022-11-20T08:03:05.043Z,97971.19
2022-11-20T08:05:31.134Z,97973.69
2022-11-20T08:07:57.236Z,97972.63
2022-11-20T08:10:23.325Z,97962.97
2022-11-20T08:12:49.429Z,97964.16
2022-11-20T08:15:15.537Z,97959.69
2022-11-20T08:17:41.622Z,97958.16
2022-11-20T08:20:07.713Z,97964.56
2022-11-20T08:22:33.825Z,97968.13
2022-11-20T08:24:59.919Z,97965.59
2022-11-20T08:27:26.016Z,97976.81
2022-11-20T08:29:52.615Z,97968.88
2022-11-20T08:32:18.717Z,97961.81
2022-11-20T08:34:44.800Z,97961.41
2022-11-20T08:37:10.911Z,97958.03
2022-11-20T08:39:37.001Z,97959.13
2022-11-20T08:42:03.079Z,97966.63
2022-11-20T08:44:29.179Z,97967.25
2022-11-20T08:46:55.260Z,97956.09
2022-11-20T08:49:21.570Z,97965.69
2022-11-20T08:51:47.899Z,97963.19
2022-11-20T08:54:13.983Z,97962.97
2022-11-20T08:56:40.087Z,97954.16
2022-11-20T08:59:37.193Z,97953.53
2022-11-20T09:01:52.256Z,97950.91
2022-11-20T09:04:18.351Z,97948.69
2022-11-20T09:06:44.434Z,97956.22
2022-11-20T09:09:10.524Z,97947.94
2022-11-20T09:11:36.629Z,97953.59
2022-11-20T09:14:02.731Z,97952.53
2022-11-20T09:16:28.812Z,97951.63
2022-11-20T09:19:13.554Z,97960.41
2022-11-20T09:21:40.990Z,97955.41
2022-11-20T09:24:07.108Z,97950.56
2022-11-20T09:26:33.205Z,97956.63
2022-11-20T09:28:59.293Z,97961.84
2022-11-20T09:31:25.729Z,97958.56
2022-11-20T09:33:51.977Z,97957.66
2022-11-20T09:36:18.064Z,97950.63
2022-11-20T09:38:44.185Z,97951.50
2022-11-20T09:41:10.279Z,97946.28
2022-11-20T09:43:37.091Z,97935.44
2022-11-20T09:46:03.978Z,97928.19
2022-11-20T09:48:31.940Z,97932.69
2022-11-20T09:50:58.069Z,97928.00
2022-11-20T09:53:24.182Z,97935.03
2022-11-20T09:55:50.294Z,97926.75
2022-11-20T09:58:16.384Z,97926.16
2022-11-20T10:00:42.539Z,97935.63
2022-11-20T10:03:08.653Z,97927.13
2022-11-20T10:05:34.750Z,97929.91
2022-11-20T10:08:00.898Z,97922.75
2022-11-20T10:10:27.056Z,97923.53
2022-11-20T10:12:53.143Z,97921.66
2022-11-20T10:15:19.249Z,97921.81
2022-11-20T10:17:45.353Z,97917.72
2022-11-20T10:20:11.460Z,97918.97
2022-11-20T10:22:37.585Z,97912.34
2022-11-20T10:25:03.683Z,97903.78
2022-11-20T10:27:29.776Z,97901.59
2022-11-20T10:29:55.900Z,97908.38
2022-11-20T10:32:22.037Z,97906.72
2022-11-20T10:34:48.150Z,97908.78
2022-11-20T10:37:14.739Z,97899.97
2022-11-20T10:39:40.848Z,97899.97
2022-11-20T10:42:06.950Z,97900.66
2022-11-20T10:44:33.070Z,97899.00
2022-11-20T10:46:59.169Z,97899.25
2022-11-20T10:49:25.256Z,97904.78
2022-11-20T10:51:51.415Z,97900.25
2022-11-20T10:54:17.499Z,97892.91
2022-11-20T10:56:49.485Z,97895.28
2022-11-20T10:59:16.151Z,97888.53
2022-11-20T11:01:42.250Z,97887.00
2022-11-20T11:04:08.359Z,97886.84
2022-11-20T11:06:34.482Z,97889.63
2022-11-20T11:09:00.582Z,97885.75
2022-11-20T11:11:26.668Z,97887.84
2022-11-20T11:13:52.791Z,97887.00
2022-11-20T11:16:18.900Z,97882.31
2022-11-20T11:18:45.020Z,97878.72
2022-11-20T11:21:11.155Z,97882.03
2022-11-20T11:23:37.247Z,97875.28
2022-11-20T11:26:03.708Z,97882.59
2022-11-20T11:28:30.297Z,97858.75
2022-11-20T11:30:56.383Z,97849.34
2022-11-20T11:33:22.480Z,97849.75
2022-11-20T11:35:51.387Z,97859.94
2022-11-20T11:38:17.750Z,97846.69
2022-11-20T11:40:43.852Z,97844.50
2022-11-20T11:43:09.981Z,97849.31
2022-11-20T11:45:36.078Z,97839.81
2022-11-20T11:48:02.184Z,97833.72
2022-11-20T11:50:28.310Z,97827.22
2022-11-20T11:52:54.397Z,97830.41
2022-11-20T11:55:20.485Z,97820.75
2022-11-20T11:57:46.603Z,97826.25
2022-11-20T12:00:12.703Z,97823.75
2022-11-20T12:02:38.802Z,97819.56
2022-11-20T12:05:04.956Z,97822.75
2022-11-20T12:07:46.240Z,97822.25
2022-11-20T12:10:13.330Z,97817.75
2022-11-20T12:12:39.433Z,97810.25
2022-11-20T12:15:05.520Z,97802.78
2022-11-20T12:17:31.625Z,97800.22
2022-11-20T12:19:57.707Z,97800.41
2022-11-20T12:22:23.787Z,97788.06
2022-11-20T12:24:49.892Z,97783.09
2022-11-20T12:27:15.984Z,97781.28
2022-11-20T12:29:42.068Z,97786.91
2022-11-20T12:32:08.171Z,97783.44
2022-11-20T12:34:34.263Z,97778.28
2022-11-20T12:37:00.381Z,97767.69
2022-11-20T12:39:26.608Z,97768.31
2022-11-20T12:41:52.708Z,97759.09
2022-11-20T12:44:18.799Z,97765.31
2022-11-20T12:46:44.903Z,97771.22
2022-11-20T12:49:10.988Z,97766.19
2022-11-20T12:51:37.084Z,97762.59
2022-11-20T12:54:03.476Z,97758.28
2022-11-20T12:56:29.595Z,97760.25
2022-11-20T12:58:55.688Z,97753.84
2022-11-20T13:01:21.843Z,97757.78
2022-11-20T13:03:47.989Z,97749.22
2022-11-20T13:06:14.103Z,97742.63
2022-11-20T13:08:40.244Z,97741.00
2022-11-20T13:11:06.347Z,97742.63
2022-11-20T13:13:32.434Z,97741.59
2022-11-20T13:15:58.557Z,97738.81
2022-11-20T13:18:24.661Z,97737.00
2022-11-20T13:20:50.774Z,97736.34
2022-11-20T13:23:16.876Z,97733.56
2022-11-20T13:25:42.975Z,97706.84
2022-11-20T13:28:09.071Z,97697.03
2022-11-20T13:30:35.685Z,97698.34
2022-11-20T13:33:01.777Z,97690.41
2022-11-20T13:35:27.855Z,97684.53
2022-11-20T13:37:53.970Z,97686.13
2022-11-20T13:40:20.317Z,97676.97
2022-11-20T13:42:46.479Z,97676.50
2022-11-20T13:45:13.085Z,97669.41
2022-11-20T13:47:39.175Z,97659.91
2022-11-20T13:50:05.278Z,97658.09
2022-11-20T13:52:31.392Z,97652.63
2022-11-20T13:54:57.481Z,97656.41
2022-11-20T13:57:23.587Z,97650.44
2022-11-20T13:59:49.731Z,97653.28
2022-11-20T14:02:15.856Z,97649.84
2022-11-20T14:04:41.941Z,97646.44
2022-11-20T14:07:08.098Z,97636.91
2022-11-20T14:09:34.216Z,97629.03
2022-11-20T14:12:00.318Z,97639.25
2022-11-20T14:14:26.687Z,97631.50
2022-11-20T14:16:52.966Z,97632.84
2022-11-20T14:19:19.064Z,97631.34
2022-11-20T14:21:45.164Z,97623.78
2022-11-20T14:24:11.251Z,97620.69
2022-11-20T14:26:37.341Z,97618.34
2022-11-20T14:29:03.873Z,97616.34
2022-11-20T14:31:29.964Z,97614.94
2022-11-20T14:33:56.052Z,97602.28
2022-11-20T14:36:22.525Z,97604.44
2022-11-20T14:38:48.642Z,97591.00
2022-11-20T14:41:14.744Z,97590.50
2022-11-20T14:43:40.864Z,97584.38
2022-11-20T14:46:06.961Z,97579.44
2022-11-20T14:48:33.048Z,97571.06
2022-11-20T14:50:59.222Z,97574.78
2022-11-20T14:53:25.314Z,97563.94
2022-11-20T14:55:54.969Z,97562.81
2022-11-20T14:58:24.726Z,97560.72
2022-11-20T15:00:50.824Z,97559.69
2022-11-20T15:03:17.043Z,97551.47
2022-11-20T15:05:43.235Z,97543.59
2022-11-20T15:08:09.329Z,97533.44
2022-11-20T15:10:35.436Z,97532.09
2022-11-20T15:13:01.555Z,97544.50
2022-11-20T15:15:27.646Z,97539.97
2022-11-20T15:17:53.745Z,97526.16
2022-11-20T15:20:19.860Z,97530.59
2022-11-20T15:22:45.952Z,97533.22
2022-11-20T15:25:12.044Z,97528.97
2022-11-20T15:27:38.148Z,97530.59
2022-11-20T15:30:04.247Z,97516.03
2022-11-20T15:32:30.357Z,97516.81
2022-11-20T15:34:56.472Z,97511.91
2022-11-20T15:37:27.285Z,97494.66
2022-11-20T15:39:55.894Z,97508.78
2022-11-20T15:42:22.000Z,97508.06
2022-11-20T15:44:48.117Z,97504.44
2022-11-20T15:47:14.211Z,97498.84
2022-11-20T15:49:40.795Z,97497.56
2022-11-20T15:52:06.891Z,97495.63
2022-11-20T15:54:32.984Z,97481.38
2022-11-20T15:56:59.090Z,97476.59
2022-11-20T15:59:25.191Z,97470.19
2022-11-20T16:01:51.385Z,97461.31
2022-11-20T16:04:17.927Z,97455.59
2022-11-20T16:06:44.141Z,97456.03
2022-11-20T16:09:10.233Z,97448.38
2022-11-20T16:11:36.358Z,97450.81
2022-11-20T16:14:02.449Z,97436.22
2022-11-20T16:16:28.541Z,97428.38
2022-11-20T16:18:54.649Z,97426.09
2022-11-20T16:21:20.742Z,97419.38
2022-11-20T16:23:46.832Z,97413.13
2022-11-20T16:26:12.943Z,97410.50
2022-11-20T16:28:39.033Z,97405.38
2022-11-20T16:31:05.129Z,97407.53
2022-11-20T16:33:31.321Z,97405.25
2022-11-20T16:35:57.412Z,97407.38
2022-11-20T16:38:23.580Z,97409.50
2022-11-20T16:40:49.744Z,97407.53
2022-11-20T16:43:15.830Z,97408.50
2022-11-20T16:45:41.935Z,97405.25
2022-11-20T16:48:08.063Z,97406.38
2022-11-20T16:50:34.148Z,97397.31
2022-11-20T16:53:00.252Z,97401.63
2022-11-20T16:55:26.652Z,97401.75
2022-11-20T16:57:52.745Z,97400.75
2022-11-20T17:00:18.858Z,97399.44
2022-11-20T17:02:45.114Z,97400.59
2022-11-20T17:05:11.204Z,97403.69
2022-11-20T17:07:37.334Z,97395.03
2022-11-20T17:10:03.448Z,97397.84
2022-11-20T17:12:29.550Z,97397.50
2022-11-20T17:14:55.652Z,97394.69
2022-11-20T17:17:21.764Z,97398.19
2022-11-20T17:19:47.856Z,97387.34
2022-11-20T17:22:13.943Z,97385.34
2022-11-20T17:24:40.056Z,97376.16
2022-11-20T17:27:06.148Z,97375.16
2022-11-20T17:29:32.237Z,97367.97
2022-11-20T17:31:58.347Z,97368.63
2022-11-20T17:34:24.705Z,97361.25
2022-11-20T17:36:51.000Z,97358.31
2022-11-20T17:39:17.156Z,97354.88
2022-11-20T17:41:43.252Z,97353.88
2022-11-20T17:44:09.351Z,97337.00
2022-11-20T17:46:35.455Z,97333.88
2022-11-20T17:49:01.556Z,97339.44
2022-11-20T17:51:27.681Z,97335.66
2022-11-20T17:53:53.799Z,97327.50
2022-11-20T17:56:19.901Z,97321.91
2022-11-20T17:58:45.992Z,97311.06
2022-11-20T18:01:12.128Z,97308.28
2022-11-20T18:03:38.249Z,97294.66
2022-11-20T18:06:04.335Z,97291.88
2022-11-20T18:08:30.444Z,97289.88
2022-11-20T18:10:56.543Z,97284.81
2022-11-20T18:13:22.633Z,97281.38
2022-11-20T18:15:48.739Z,97275.63
2022-11-20T18:18:14.832Z,97272.19
2022-11-20T18:20:40.975Z,97260.69
2022-11-20T18:23:07.115Z,97249.19
2022-11-20T18:25:33.207Z,97254.97
2022-11-20T18:27:59.300Z,97246.25
2022-11-20T18:30:25.416Z,97247.06
2022-11-20T18:32:51.580Z,97236.09
2022-11-20T18:35:17.676Z,97229.38
2022-11-20T18:37:43.871Z,97227.22
2022-11-20T18:40:09.952Z,97210.81
2022-11-20T18:42:36.056Z,97209.50
2022-11-20T18:45:02.167Z,97209.84
2022-11-20T18:47:28.253Z,97202.63
2022-11-20T18:49:54.369Z,97189.66
2022-11-20T18:52:20.524Z,97185.88
2022-11-20T18:54:46.616Z,97181.47
2022-11-20T18:57:12.710Z,97171.44
2022-11-20T18:59:39.095Z,97173.09
2022-11-20T19:02:05.185Z,97170.78
2022-11-20T19:04:31.264Z,97163.72
2022-11-20T19:06:57.382Z,97163.91
2022-11-20T19:09:23.870Z,97161.28
2022-11-20T19:11:50.353Z,97147.00
2022-11-20T19:14:16.472Z,97142.25
2022-11-20T19:16:42.575Z,97128.78
2022-11-20T19:19:08.671Z,97135.69
2022-11-20T19:21:34.787Z,97130.75
2022-11-20T19:24:00.874Z,97124.19
2022-11-20T19:26:26.963Z,97115.81
2022-11-20T19:28:53.074Z,97107.44
2022-11-20T19:31:23.147Z,97102.84
2022-11-20T19:33:50.647Z,97108.44
2022-11-20T19:36:16.752Z,97098.25
2022-11-20T19:38:47.681Z,97101.38
2022-11-20T19:41:14.032Z,97093.50
2022-11-20T19:43:40.501Z,97092.81
2022-11-20T19:46:06.593Z,97079.22
2022-11-20T19:48:32.689Z,97082.81
2022-11-20T19:50:58.792Z,97068.53
2022-11-20T19:53:24.881Z,97067.38
2022-11-20T19:55:50.975Z,97074.25
2022-11-20T19:58:17.079Z,97068.69
2022-11-20T20:00:43.174Z,97057.88
2022-11-20T20:03:09.261Z,97068.50
2022-11-20T20:05:35.377Z,97051.25
2022-11-20T20:08:01.463Z,97053.22
2022-11-20T20:10:27.563Z,97045.00
2022-11-20T20:12:53.678Z,97041.06
2022-11-20T20:15:19.774Z,97043.34
2022-11-20T20:17:45.863Z,97040.19
2022-11-20T20:20:11.973Z,97020.69
2022-11-20T20:22:38.069Z,97032.19
2022-11-20T20:25:04.517Z,97033.94
2022-11-20T20:27:30.624Z,97030.00
2022-11-20T20:29:56.708Z,97031.28
2022-11-20T20:32:24.382Z,97011.91
2022-11-20T20:34:50.500Z,97016.00
2022-11-20T20:37:16.622Z,97011.75
2022-11-20T20:39:45.739Z,97007.78
2022-11-20T20:42:11.858Z,97004.47
2022-11-20T20:44:37.944Z,97005.75
2022-11-20T20:47:04.527Z,96997.50
2022-11-20T20:49:30.635Z,97010.78
2022-11-20T20:51:56.743Z,97000.63
2022-11-20T20:54:22.837Z,97000.09
2022-11-20T20:56:48.957Z,96987.94
2022-11-20T20:59:15.049Z,97002.09
2022-11-20T21:01:41.158Z,96999.91
2022-11-20T21:04:07.771Z,96999.91
2022-11-20T21:06:33.872Z,96993.16
2022-11-20T21:08:59.963Z,97002.66
2022-11-20T21:11:26.069Z,96999.75
2022-11-20T21:13:52.144Z,97006.63
2022-11-20T21:16:18.239Z,97007.63
2022-11-20T21:18:44.344Z,97009.44
2022-11-20T21:21:10.435Z,97008.00
2022-11-20T21:23:36.532Z,97006.19
2022-11-20T21:26:02.651Z,97009.16
2022-11-20T21:28:28.735Z,97008.09
2022-11-20T21:30:54.821Z,97022.91
2022-11-20T21:33:20.935Z,97030.19
2022-11-20T21:35:47.019Z,97022.91
2022-11-20T21:38:13.103Z,97047.59
2022-11-20T21:40:39.206Z,97036.00
2022-11-20T21:43:05.296Z,97032.09
2022-11-20T21:45:31.376Z,97013.63
2022-11-20T21:47:57.506Z,97075.41
2022-11-20T21:50:23.708Z,97134.66
2022-11-20T21:52:49.837Z,97054.28
2022-11-20T21:55:15.968Z,97040.81
2022-11-20T21:57:42.056Z,97066.25
2022-11-20T22:00:08.146Z,97045.75
2022-11-20T22:02:34.256Z,97068.91
2022-11-20T22:05:00.344Z,97055.94
2022-11-20T22:07:26.454Z,97088.59
2022-11-20T22:09:52.611Z,97080.56
2022-11-20T22:12:18.711Z,97081.88
2022-11-20T22:14:44.800Z,97081.22
2022-11-20T22:17:10.908Z,97090.25
2022-11-20T22:19:36.987Z,97079.25
2022-11-20T22:22:03.073Z,97106.00
2022-11-20T22:24:29.196Z,97101.75
2022-11-20T22:26:55.296Z,97095.03
2022-11-20T22:29:21.469Z,97103.56
2022-11-20T22:31:47.632Z,97112.91
2022-11-20T22:34:13.732Z,97108.63
2022-11-20T22:36:39.824Z,97122.06
2022-11-20T22:39:05.944Z,97125.50
2022-11-20T22:41:32.039Z,97127.66
2022-11-20T22:43:58.134Z,97127.28
2022-11-20T22:46:24.257Z,97136.63
2022-11-20T22:48:50.372Z,97135.31
2022-11-20T22:51:16.489Z,97165.81
2022-11-20T22:53:42.596Z,97141.69
2022-11-20T22:56:08.689Z,97162.19
2022-11-20T22:58:34.772Z,97144.97
2022-11-20T23:01:00.874Z,97172.31
2022-11-20T23:03:27.007Z,97162.50
2022-11-20T23:05:53.154Z,97158.22
2022-11-20T23:08:19.754Z,97168.38
2022-11-20T23:10:45.843Z,97184.47
2022-11-20T23:13:11.919Z,97165.47
2022-11-20T23:15:38.027Z,97184.13
2022-11-20T23:18:04.124Z,97211.78
2022-11-20T23:20:30.219Z,97203.44
2022-11-20T23:22:56.349Z,97213.06
2022-11-20T23:25:22.443Z,97203.88
2022-11-20T23:27:48.538Z,97205.53
2022-11-20T23:30:14.640Z,97209.28
2022-11-20T23:32:40.741Z,97208.41
2022-11-20T23:35:06.841Z,97222.25
2022-11-20T23:37:32.939Z,97230.47
2022-11-20T23:39:59.024Z,97214.38
2022-11-20T23:42:25.126Z,97210.47
2022-11-20T23:44:51.230Z,97222.31
2022-11-20T23:47:17.333Z,97225.06
2022-11-20T23:49:43.424Z,97236.66
2022-11-20T23:52:10.018Z,97229.91
2022-11-20T23:54:36.112Z,97229.00
2022-11-20T23:57:02.208Z,97230.63
2022-11-20T23:59:28.386Z,97239.63
